createdAt,value
2019-04-16T00:00:05.672Z,1014.03
2019-04-16T00:01:05.655Z,1014.04
2019-04-16T00:02:05.646Z,1013.99
2019-04-16T00:03:05.762Z,1013.97
2019-04-16T00:04:05.755Z,1013.97
2019-04-16T00:05:05.867Z,1014.00
2019-04-16T00:06:05.760Z,1013.96
2019-04-16T00:07:05.598Z,1013.94
2019-04-16T00:08:10.042Z,1013.93
2019-04-16T00:09:06.567Z,1013.90
2019-04-16T00:10:05.558Z,1013.91
2019-04-16T00:11:05.560Z,1013.86
2019-04-16T00:12:14.113Z,1013.88
2019-04-16T00:13:05.590Z,1013.85
2019-04-16T00:14:05.517Z,1013.83
2019-04-16T00:15:05.500Z,1013.84
2019-04-16T00:16:05.511Z,1013.81
2019-04-16T00:17:05.477Z,1013.84
2019-04-16T00:18:05.470Z,1013.83
2019-04-16T00:19:06.515Z,1013.81
2019-04-16T00:20:06.783Z,1013.79
2019-04-16T00:21:06.443Z,1013.76
2019-04-16T00:22:05.513Z,1013.79
2019-04-16T00:23:05.423Z,1013.76
2019-04-16T00:24:05.430Z,1013.79
2019-04-16T00:25:05.391Z,1013.77
2019-04-16T00:26:05.381Z,1013.76
2019-04-16T00:27:05.421Z,1013.78
2019-04-16T00:28:05.378Z,1013.73
2019-04-16T00:29:05.344Z,1013.78
2019-04-16T00:30:05.780Z,1013.73
2019-04-16T00:31:05.853Z,1013.75
2019-04-16T00:32:09.083Z,1013.77
2019-04-16T00:33:07.520Z,1013.77
2019-04-16T00:34:06.288Z,1013.78
2019-04-16T00:35:05.276Z,1013.79
2019-04-16T00:36:05.326Z,1013.78
2019-04-16T00:37:05.465Z,1013.80
2019-04-16T00:38:05.244Z,1013.75
2019-04-16T00:39:05.256Z,1013.76
2019-04-16T00:40:05.241Z,1013.74
2019-04-16T00:41:05.225Z,1013.73
2019-04-16T00:42:05.224Z,1013.74
2019-04-16T00:43:05.223Z,1013.74
2019-04-16T00:44:05.190Z,1013.79
2019-04-16T00:45:05.178Z,1013.74
2019-04-16T00:46:05.160Z,1013.75
2019-04-16T00:47:05.176Z,1013.77
2019-04-16T00:48:05.149Z,1013.74
2019-04-16T00:49:05.123Z,1013.75
2019-04-16T00:50:05.113Z,1013.76
2019-04-16T00:51:05.136Z,1013.76
2019-04-16T00:52:06.672Z,1013.77
2019-04-16T00:53:07.620Z,1013.76
2019-04-16T00:54:09.875Z,1013.77
2019-04-16T00:55:06.071Z,1013.79
2019-04-16T00:56:05.227Z,1013.76
2019-04-16T00:57:05.053Z,1013.76
2019-04-16T00:58:05.029Z,1013.71
2019-04-16T00:59:05.059Z,1013.75
2019-04-16T01:00:05.022Z,1013.62
2019-04-16T01:01:04.991Z,1013.68
2019-04-16T01:02:04.987Z,1013.67
2019-04-16T01:03:05.031Z,1013.65
2019-04-16T01:04:05.504Z,1013.65
2019-04-16T01:05:04.951Z,1013.65
2019-04-16T01:06:07.941Z,1013.66
2019-04-16T01:07:04.933Z,1013.64
2019-04-16T01:08:04.916Z,1013.60
2019-04-16T01:09:04.903Z,1013.60
2019-04-16T01:10:04.951Z,1013.60
2019-04-16T01:11:04.892Z,1013.60
2019-04-16T01:12:05.042Z,1013.59
2019-04-16T01:13:04.887Z,1013.61
2019-04-16T01:14:04.946Z,1013.65
2019-04-16T01:15:04.949Z,1013.67
2019-04-16T01:16:04.981Z,1013.54
2019-04-16T01:17:05.291Z,1013.64
2019-04-16T01:18:07.835Z,1013.57
2019-04-16T01:19:09.483Z,1013.57
2019-04-16T01:20:05.797Z,1013.55
2019-04-16T01:21:04.787Z,1013.58
2019-04-16T01:22:04.758Z,1013.59
2019-04-16T01:23:04.771Z,1013.57
2019-04-16T01:24:04.736Z,1013.56
2019-04-16T01:25:04.753Z,1013.56
2019-04-16T01:26:04.736Z,1013.54
2019-04-16T01:27:04.700Z,1013.53
2019-04-16T01:28:04.699Z,1013.51
2019-04-16T01:29:04.699Z,1013.53
2019-04-16T01:30:05.937Z,1013.51
2019-04-16T01:31:08.129Z,1013.57
2019-04-16T01:32:07.276Z,1013.57
2019-04-16T01:33:05.631Z,1013.58
2019-04-16T01:34:04.668Z,1013.57
2019-04-16T01:35:04.634Z,1013.59
2019-04-16T01:36:04.623Z,1013.59
2019-04-16T01:37:04.628Z,1013.58
2019-04-16T01:38:04.580Z,1013.59
2019-04-16T01:39:15.982Z,1013.61
2019-04-16T01:40:05.566Z,1013.56
2019-04-16T01:41:04.550Z,1013.63
2019-04-16T01:42:04.534Z,1013.65
2019-04-16T01:43:04.551Z,1013.64
2019-04-16T01:44:04.525Z,1013.64
2019-04-16T01:45:04.522Z,1013.63
2019-04-16T01:46:04.494Z,1013.62
2019-04-16T01:47:05.292Z,1013.59
2019-04-16T01:48:08.053Z,1013.66
2019-04-16T01:49:04.484Z,1013.65
2019-04-16T01:50:04.451Z,1013.67
2019-04-16T01:51:04.451Z,1013.65
2019-04-16T01:52:04.480Z,1013.68
2019-04-16T01:53:04.550Z,1013.67
2019-04-16T01:54:04.585Z,1013.65
2019-04-16T01:55:04.390Z,1013.63
2019-04-16T01:56:04.380Z,1013.61
2019-04-16T01:57:04.373Z,1013.62
2019-04-16T01:58:04.367Z,1013.66
2019-04-16T01:59:05.760Z,1013.63
2019-04-16T02:00:07.087Z,1013.59
2019-04-16T02:01:04.367Z,1013.65
2019-04-16T02:02:04.325Z,1013.62
2019-04-16T02:03:04.298Z,1013.65
2019-04-16T02:04:04.346Z,1013.60
2019-04-16T02:05:04.293Z,1013.59
2019-04-16T02:06:04.272Z,1013.63
2019-04-16T02:07:04.274Z,1013.62
2019-04-16T02:08:04.298Z,1013.61
2019-04-16T02:09:04.252Z,1013.64
2019-04-16T02:10:07.527Z,1013.64
2019-04-16T02:11:04.223Z,1013.65
2019-04-16T02:12:04.213Z,1013.61
2019-04-16T02:13:04.188Z,1013.63
2019-04-16T02:14:04.187Z,1013.60
2019-04-16T02:15:04.173Z,1013.63
2019-04-16T02:16:04.184Z,1013.61
2019-04-16T02:17:04.158Z,1013.57
2019-04-16T02:18:04.182Z,1013.59
2019-04-16T02:19:04.125Z,1013.64
2019-04-16T02:20:06.081Z,1013.65
2019-04-16T02:21:04.110Z,1013.63
2019-04-16T02:22:04.116Z,1013.63
2019-04-16T02:23:04.081Z,1013.62
2019-04-16T02:24:04.092Z,1013.60
2019-04-16T02:25:04.086Z,1013.63
2019-04-16T02:26:04.122Z,1013.66
2019-04-16T02:27:04.220Z,1013.66
2019-04-16T02:28:04.229Z,1013.62
2019-04-16T02:29:04.020Z,1013.62
2019-04-16T02:30:05.152Z,1013.64
2019-04-16T02:31:04.007Z,1013.64
2019-04-16T02:32:03.990Z,1013.62
2019-04-16T02:33:04.006Z,1013.70
2019-04-16T02:34:03.985Z,1013.70
2019-04-16T02:35:03.950Z,1013.66
2019-04-16T02:36:03.939Z,1013.66
2019-04-16T02:37:03.948Z,1013.67
2019-04-16T02:38:11.062Z,1013.61
2019-04-16T02:39:04.937Z,1013.64
2019-04-16T02:40:03.893Z,1013.63
2019-04-16T02:41:03.890Z,1013.61
2019-04-16T02:42:03.873Z,1013.64
2019-04-16T02:43:06.196Z,1013.64
2019-04-16T02:44:03.898Z,1013.61
2019-04-16T02:45:03.866Z,1013.61
2019-04-16T02:46:03.853Z,1013.64
2019-04-16T02:47:06.095Z,1013.63
2019-04-16T02:48:03.814Z,1013.66
2019-04-16T02:49:04.071Z,1013.64
2019-04-16T02:50:03.822Z,1013.64
2019-04-16T02:51:06.890Z,1013.65
2019-04-16T02:52:03.784Z,1013.61
2019-04-16T02:53:03.752Z,1013.70
2019-04-16T02:54:03.777Z,1013.70
2019-04-16T02:55:08.755Z,1013.69
2019-04-16T02:56:04.740Z,1013.67
2019-04-16T02:57:03.725Z,1013.67
2019-04-16T02:58:03.696Z,1013.63
2019-04-16T02:59:09.664Z,1013.62
2019-04-16T03:00:04.722Z,1013.65
2019-04-16T03:01:03.678Z,1013.63
2019-04-16T03:02:03.647Z,1013.59
2019-04-16T03:03:03.645Z,1013.64
2019-04-16T03:04:03.623Z,1013.64
2019-04-16T03:05:03.663Z,1013.66
2019-04-16T03:06:03.627Z,1013.64
2019-04-16T03:07:04.328Z,1013.66
2019-04-16T03:08:04.601Z,1013.67
2019-04-16T03:09:05.378Z,1013.71
2019-04-16T03:10:04.558Z,1013.68
2019-04-16T03:11:03.558Z,1013.64
2019-04-16T03:12:03.588Z,1013.65
2019-04-16T03:13:03.565Z,1013.64
2019-04-16T03:14:03.519Z,1013.66
2019-04-16T03:15:03.516Z,1013.66
2019-04-16T03:16:06.247Z,1013.66
2019-04-16T03:17:03.490Z,1013.69
2019-04-16T03:18:03.500Z,1013.66
2019-04-16T03:19:03.491Z,1013.62
2019-04-16T03:20:03.645Z,1013.65
2019-04-16T03:21:03.436Z,1013.61
2019-04-16T03:22:03.792Z,1013.60
2019-04-16T03:23:06.095Z,1013.62
2019-04-16T03:24:08.063Z,1013.61
2019-04-16T03:25:04.391Z,1013.59
2019-04-16T03:26:03.393Z,1013.57
2019-04-16T03:27:05.240Z,1013.60
2019-04-16T03:28:03.391Z,1013.61
2019-04-16T03:29:03.361Z,1013.60
2019-04-16T03:30:06.031Z,1013.58
2019-04-16T03:31:08.126Z,1013.59
2019-04-16T03:32:04.804Z,1013.60
2019-04-16T03:33:10.199Z,1013.58
2019-04-16T03:34:04.701Z,1013.58
2019-04-16T03:35:03.285Z,1013.56
2019-04-16T03:36:03.423Z,1013.54
2019-04-16T03:37:03.710Z,1013.51
2019-04-16T03:38:05.347Z,1013.52
2019-04-16T03:39:03.596Z,1013.48
2019-04-16T03:40:15.304Z,1013.47
2019-04-16T03:41:04.222Z,1013.48
2019-04-16T03:42:03.236Z,1013.48
2019-04-16T03:43:04.500Z,1013.48
2019-04-16T03:44:04.114Z,1013.48
2019-04-16T03:45:08.003Z,1013.47
2019-04-16T03:46:04.162Z,1013.47
2019-04-16T03:47:03.154Z,1013.45
2019-04-16T03:48:03.143Z,1013.47
2019-04-16T03:49:03.155Z,1013.43
2019-04-16T03:50:03.150Z,1013.41
2019-04-16T03:51:03.672Z,1013.41
2019-04-16T03:52:04.938Z,1013.43
2019-04-16T03:53:04.092Z,1013.41
2019-04-16T03:54:04.845Z,1013.39
2019-04-16T03:55:03.110Z,1013.39
2019-04-16T03:56:03.095Z,1013.37
2019-04-16T03:57:03.066Z,1013.39
2019-04-16T03:58:06.099Z,1013.40
2019-04-16T03:59:03.021Z,1013.39
2019-04-16T04:00:03.063Z,1013.38
2019-04-16T04:01:02.996Z,1013.41
2019-04-16T04:02:02.989Z,1013.40
2019-04-16T04:03:02.979Z,1013.39
2019-04-16T04:04:03.001Z,1013.31
2019-04-16T04:05:06.349Z,1013.36
2019-04-16T04:06:03.585Z,1013.32
2019-04-16T04:07:02.937Z,1013.34
2019-04-16T04:08:02.978Z,1013.35
2019-04-16T04:09:02.908Z,1013.32
2019-04-16T04:10:02.909Z,1013.34
2019-04-16T04:11:02.990Z,1013.34
2019-04-16T04:12:02.914Z,1013.35
2019-04-16T04:13:04.872Z,1013.36
2019-04-16T04:14:02.859Z,1013.39
2019-04-16T04:15:02.844Z,1013.35
2019-04-16T04:16:02.837Z,1013.33
2019-04-16T04:17:06.699Z,1013.33
2019-04-16T04:18:02.832Z,1013.32
2019-04-16T04:19:02.805Z,1013.29
2019-04-16T04:20:02.787Z,1013.27
2019-04-16T04:21:02.784Z,1013.28
2019-04-16T04:22:02.777Z,1013.29
2019-04-16T04:23:02.783Z,1013.31
2019-04-16T04:24:02.750Z,1013.31
2019-04-16T04:25:04.357Z,1013.34
2019-04-16T04:26:05.554Z,1013.31
2019-04-16T04:27:03.730Z,1013.32
2019-04-16T04:28:02.701Z,1013.29
2019-04-16T04:29:05.969Z,1013.31
2019-04-16T04:30:02.694Z,1013.29
2019-04-16T04:31:02.673Z,1013.28
2019-04-16T04:32:03.384Z,1013.30
2019-04-16T04:33:07.423Z,1013.31
2019-04-16T04:34:03.671Z,1013.32
2019-04-16T04:35:02.621Z,1013.29
2019-04-16T04:36:02.634Z,1013.33
2019-04-16T04:37:02.614Z,1013.36
2019-04-16T04:38:04.197Z,1013.36
2019-04-16T04:39:02.577Z,1013.34
2019-04-16T04:40:02.613Z,1013.36
2019-04-16T04:41:02.563Z,1013.33
2019-04-16T04:42:02.547Z,1013.36
2019-04-16T04:43:02.569Z,1013.36
2019-04-16T04:44:04.290Z,1013.33
2019-04-16T04:45:02.537Z,1013.32
2019-04-16T04:46:02.499Z,1013.27
2019-04-16T04:47:02.489Z,1013.27
2019-04-16T04:48:02.504Z,1013.27
2019-04-16T04:49:02.510Z,1013.24
2019-04-16T04:50:03.525Z,1013.30
2019-04-16T04:51:07.000Z,1013.23
2019-04-16T04:52:03.439Z,1013.24
2019-04-16T04:53:02.458Z,1013.29
2019-04-16T04:54:02.438Z,1013.28
2019-04-16T04:55:02.401Z,1013.26
2019-04-16T04:56:02.446Z,1013.27
2019-04-16T04:57:02.388Z,1013.28
2019-04-16T04:58:03.327Z,1013.27
2019-04-16T04:59:04.977Z,1013.20
2019-04-16T05:00:02.368Z,1013.21
2019-04-16T05:01:02.339Z,1013.21
2019-04-16T05:02:02.336Z,1013.18
2019-04-16T05:03:02.339Z,1013.20
2019-04-16T05:04:02.390Z,1013.23
2019-04-16T05:05:02.397Z,1013.22
2019-04-16T05:06:02.315Z,1013.26
2019-04-16T05:07:04.781Z,1013.25
2019-04-16T05:08:02.260Z,1013.24
2019-04-16T05:09:02.255Z,1013.25
2019-04-16T05:10:04.594Z,1013.25
2019-04-16T05:11:03.290Z,1013.22
2019-04-16T05:12:02.220Z,1013.26
2019-04-16T05:13:02.219Z,1013.25
2019-04-16T05:14:02.203Z,1013.22
2019-04-16T05:15:03.881Z,1013.23
2019-04-16T05:16:02.799Z,1013.28
2019-04-16T05:17:03.532Z,1013.25
2019-04-16T05:18:02.147Z,1013.35
2019-04-16T05:19:02.137Z,1013.33
2019-04-16T05:20:02.173Z,1013.36
2019-04-16T05:21:02.129Z,1013.36
2019-04-16T05:22:02.109Z,1013.30
2019-04-16T05:23:02.095Z,1013.35
2019-04-16T05:24:02.083Z,1013.33
2019-04-16T05:25:02.513Z,1013.34
2019-04-16T05:26:04.546Z,1013.38
2019-04-16T05:27:02.054Z,1013.36
2019-04-16T05:28:02.052Z,1013.31
2019-04-16T05:29:02.032Z,1013.33
2019-04-16T05:30:02.063Z,1013.30
2019-04-16T05:31:02.016Z,1013.35
2019-04-16T05:32:02.016Z,1013.38
2019-04-16T05:33:05.095Z,1013.32
2019-04-16T05:34:02.425Z,1013.32
2019-04-16T05:35:01.977Z,1013.35
2019-04-16T05:36:01.963Z,1013.35
2019-04-16T05:37:01.977Z,1013.34
2019-04-16T05:38:01.930Z,1013.33
2019-04-16T05:39:03.703Z,1013.33
2019-04-16T05:40:01.926Z,1013.32
2019-04-16T05:41:12.529Z,1013.31
2019-04-16T05:42:02.934Z,1013.29
2019-04-16T05:43:01.881Z,1013.28
2019-04-16T05:44:02.128Z,1013.29
2019-04-16T05:45:02.501Z,1013.36
2019-04-16T05:46:01.840Z,1013.35
2019-04-16T05:47:01.855Z,1013.35
2019-04-16T05:48:01.846Z,1013.33
2019-04-16T05:49:01.800Z,1013.35
2019-04-16T05:50:01.812Z,1013.34
2019-04-16T05:51:01.790Z,1013.31
2019-04-16T05:52:03.794Z,1013.29
2019-04-16T05:53:01.776Z,1013.29
2019-04-16T05:54:01.750Z,1013.32
2019-04-16T05:55:01.767Z,1013.32
2019-04-16T05:56:01.738Z,1013.34
2019-04-16T05:57:01.716Z,1013.33
2019-04-16T05:58:01.726Z,1013.31
2019-04-16T05:59:02.705Z,1013.28
2019-04-16T06:00:04.713Z,1013.25
2019-04-16T06:01:02.670Z,1013.32
2019-04-16T06:02:01.665Z,1013.30
2019-04-16T06:03:01.678Z,1013.28
2019-04-16T06:04:01.672Z,1013.29
2019-04-16T06:05:01.637Z,1013.27
2019-04-16T06:06:01.644Z,1013.26
2019-04-16T06:07:04.958Z,1013.26
2019-04-16T06:08:02.717Z,1013.24
2019-04-16T06:09:01.589Z,1013.26
2019-04-16T06:10:01.590Z,1013.25
2019-04-16T06:11:01.562Z,1013.24
2019-04-16T06:12:01.545Z,1013.23
2019-04-16T06:13:01.533Z,1013.23
2019-04-16T06:14:01.543Z,1013.30
2019-04-16T06:15:01.521Z,1013.23
2019-04-16T06:16:01.520Z,1013.23
2019-04-16T06:17:01.489Z,1013.23
2019-04-16T06:18:02.488Z,1013.22
2019-04-16T06:19:01.478Z,1013.21
2019-04-16T06:20:01.453Z,1013.19
2019-04-16T06:21:01.440Z,1013.16
2019-04-16T06:22:01.467Z,1013.17
2019-04-16T06:23:01.590Z,1013.13
2019-04-16T06:24:03.518Z,1013.18
2019-04-16T06:25:08.521Z,1013.15
2019-04-16T06:26:02.383Z,1013.18
2019-04-16T06:27:01.389Z,1013.17
2019-04-16T06:28:01.400Z,1013.14
2019-04-16T06:29:01.356Z,1013.14
2019-04-16T06:30:02.330Z,1013.16
2019-04-16T06:31:04.999Z,1013.18
2019-04-16T06:32:01.341Z,1013.15
2019-04-16T06:33:01.307Z,1013.11
2019-04-16T06:34:01.299Z,1013.12
2019-04-16T06:35:01.288Z,1013.13
2019-04-16T06:36:01.312Z,1013.11
2019-04-16T06:37:01.278Z,1013.15
2019-04-16T06:38:01.274Z,1013.15
2019-04-16T06:39:01.265Z,1013.25
2019-04-16T06:40:01.848Z,1013.16
2019-04-16T06:41:03.380Z,1013.15
2019-04-16T06:42:01.241Z,1013.12
2019-04-16T06:43:02.804Z,1013.21
2019-04-16T06:44:03.882Z,1013.17
2019-04-16T06:45:01.707Z,1013.18
2019-04-16T06:46:01.220Z,1013.18
2019-04-16T06:47:01.162Z,1013.18
2019-04-16T06:48:01.144Z,1013.16
2019-04-16T06:49:01.125Z,1013.17
2019-04-16T06:50:01.175Z,1013.16
2019-04-16T06:51:01.144Z,1013.12
2019-04-16T06:52:01.115Z,1013.10
2019-04-16T06:53:01.082Z,1013.19
2019-04-16T06:54:01.135Z,1013.12
2019-04-16T06:55:03.694Z,1013.11
2019-04-16T06:56:01.069Z,1013.06
2019-04-16T06:57:01.040Z,1013.11
2019-04-16T06:58:01.025Z,1013.11
2019-04-16T06:59:01.046Z,1013.11
2019-04-16T07:00:02.379Z,1013.10
2019-04-16T07:01:05.860Z,1013.07
2019-04-16T07:02:01.975Z,1013.10
2019-04-16T07:03:02.430Z,1013.16
2019-04-16T07:04:00.966Z,1013.10
2019-04-16T07:05:01.973Z,1013.15
2019-04-16T07:06:03.678Z,1013.15
2019-04-16T07:07:00.922Z,1013.10
2019-04-16T07:08:00.913Z,1013.08
2019-04-16T07:09:01.382Z,1013.03
2019-04-16T07:10:00.904Z,1013.10
2019-04-16T07:11:00.883Z,1013.09
2019-04-16T07:12:00.871Z,1013.06
2019-04-16T07:13:00.873Z,1013.07
2019-04-16T07:14:00.846Z,1013.04
2019-04-16T07:15:00.871Z,1013.09
2019-04-16T07:16:00.830Z,1013.05
2019-04-16T07:17:00.895Z,1013.04
2019-04-16T07:18:02.551Z,1012.99
2019-04-16T07:19:00.824Z,1013.02
2019-04-16T07:20:04.329Z,1013.04
2019-04-16T07:21:00.761Z,1013.06
2019-04-16T07:22:00.755Z,1013.06
2019-04-16T07:23:00.750Z,1013.06
2019-04-16T07:24:00.890Z,1013.09
2019-04-16T07:25:04.163Z,1013.07
2019-04-16T07:26:03.396Z,1013.08
2019-04-16T07:27:00.886Z,1013.02
2019-04-16T07:28:00.691Z,1013.03
2019-04-16T07:29:00.707Z,1013.04
2019-04-16T07:30:04.893Z,1013.01
2019-04-16T07:31:01.715Z,1013.04
2019-04-16T07:32:00.929Z,1013.07
2019-04-16T07:33:01.216Z,1013.03
2019-04-16T07:34:00.630Z,1013.06
2019-04-16T07:35:00.605Z,1013.01
2019-04-16T07:36:00.730Z,1013.02
2019-04-16T07:37:01.808Z,1013.01
2019-04-16T07:38:04.964Z,1013.01
2019-04-16T07:39:01.569Z,1012.99
2019-04-16T07:40:00.690Z,1013.00
2019-04-16T07:41:00.553Z,1012.94
2019-04-16T07:42:09.482Z,1012.99
2019-04-16T07:43:01.529Z,1012.95
2019-04-16T07:44:04.461Z,1012.99
2019-04-16T07:45:01.501Z,1012.96
2019-04-16T07:46:00.511Z,1012.98
2019-04-16T07:47:00.473Z,1012.97
2019-04-16T07:48:00.474Z,1012.97
2019-04-16T07:49:00.461Z,1012.97
2019-04-16T07:50:01.390Z,1012.96
2019-04-16T07:51:01.574Z,1012.91
2019-04-16T07:52:00.470Z,1012.95
2019-04-16T07:53:00.430Z,1012.95
2019-04-16T07:54:02.280Z,1012.96
2019-04-16T07:55:00.390Z,1013.00
2019-04-16T07:56:00.367Z,1012.87
2019-04-16T07:57:00.426Z,1012.91
2019-04-16T07:58:00.361Z,1012.89
2019-04-16T07:59:01.645Z,1012.94
2019-04-16T08:00:00.324Z,1012.90
2019-04-16T08:01:00.349Z,1012.95
2019-04-16T08:02:00.438Z,1012.94
2019-04-16T08:03:00.348Z,1012.86
2019-04-16T08:04:01.554Z,1012.86
2019-04-16T08:05:00.280Z,1012.91
2019-04-16T08:06:00.275Z,1012.90
2019-04-16T08:07:00.250Z,1012.93
2019-04-16T08:08:00.243Z,1012.92
2019-04-16T08:09:00.268Z,1012.92
2019-04-16T08:10:02.062Z,1012.97
2019-04-16T08:11:00.202Z,1012.96
2019-04-16T08:12:00.209Z,1012.94
2019-04-16T08:13:00.950Z,1012.97
2019-04-16T08:14:00.375Z,1012.95
2019-04-16T08:15:12.879Z,1012.92
2019-04-16T08:16:01.183Z,1012.96
2019-04-16T08:17:00.137Z,1012.95
2019-04-16T08:18:00.131Z,1012.93
2019-04-16T08:19:00.123Z,1012.91
2019-04-16T08:20:00.121Z,1012.90
2019-04-16T08:21:02.647Z,1012.91
2019-04-16T08:22:01.205Z,1012.89
2019-04-16T08:23:00.084Z,1012.82
2019-04-16T08:24:00.391Z,1012.87
2019-04-16T08:25:03.274Z,1012.91
2019-04-16T08:26:03.572Z,1012.83
2019-04-16T08:27:00.050Z,1012.89
2019-04-16T08:28:00.026Z,1012.84
2019-04-16T08:29:00.003Z,1012.85
2019-04-16T08:30:03.388Z,1012.83
2019-04-16T08:31:00.289Z,1012.82
2019-04-16T08:31:59.965Z,1012.80
2019-04-16T08:32:59.972Z,1012.83
2019-04-16T08:33:59.973Z,1012.77
2019-04-16T08:34:59.975Z,1012.78
2019-04-16T08:35:59.946Z,1012.76
2019-04-16T08:36:59.914Z,1012.70
2019-04-16T08:37:59.910Z,1012.78
2019-04-16T08:38:59.912Z,1012.81
2019-04-16T08:39:59.900Z,1012.75
2019-04-16T08:40:59.867Z,1012.82
2019-04-16T08:41:59.883Z,1012.77
2019-04-16T08:42:59.847Z,1012.78
2019-04-16T08:44:03.548Z,1012.77
2019-04-16T08:44:59.851Z,1012.77
2019-04-16T08:45:59.863Z,1012.79
2019-04-16T08:46:59.804Z,1012.79
2019-04-16T08:47:59.838Z,1012.75
2019-04-16T08:48:59.801Z,1012.75
2019-04-16T08:49:59.774Z,1012.71
2019-04-16T08:50:59.764Z,1012.75
2019-04-16T08:51:59.737Z,1012.68
2019-04-16T08:52:59.741Z,1012.69
2019-04-16T08:53:59.759Z,1012.65
2019-04-16T08:54:59.729Z,1012.66
2019-04-16T08:55:59.697Z,1012.72
2019-04-16T08:56:59.684Z,1012.70
2019-04-16T08:57:59.695Z,1012.70
2019-04-16T08:59:01.297Z,1012.68
2019-04-16T08:59:59.686Z,1012.64
2019-04-16T09:00:59.649Z,1012.63
2019-04-16T09:01:59.650Z,1012.52
2019-04-16T09:02:59.622Z,1012.59
2019-04-16T09:04:02.455Z,1012.61
2019-04-16T09:04:59.616Z,1012.58
2019-04-16T09:05:59.609Z,1012.64
2019-04-16T09:07:11.597Z,1012.58
2019-04-16T09:08:11.905Z,1012.59
2019-04-16T09:09:11.539Z,1012.56
2019-04-16T09:10:00.567Z,1012.55
2019-04-16T09:11:00.457Z,1012.57
2019-04-16T09:11:59.526Z,1012.57
2019-04-16T09:13:03.773Z,1012.53
2019-04-16T09:14:00.590Z,1012.47
2019-04-16T09:14:59.496Z,1012.54
2019-04-16T09:15:59.496Z,1012.54
2019-04-16T09:16:59.480Z,1012.52
2019-04-16T09:17:59.463Z,1012.48
2019-04-16T09:18:59.496Z,1012.46
2019-04-16T09:20:01.755Z,1012.49
2019-04-16T09:21:00.425Z,1012.42
2019-04-16T09:21:59.409Z,1012.43
2019-04-16T09:22:59.419Z,1012.46
2019-04-16T09:24:07.066Z,1012.44
2019-04-16T09:25:00.431Z,1012.51
2019-04-16T09:26:12.473Z,1012.39
2019-04-16T09:27:00.362Z,1012.43
2019-04-16T09:28:00.728Z,1012.40
2019-04-16T09:29:01.450Z,1012.44
2019-04-16T09:30:00.396Z,1012.43
2019-04-16T09:30:59.340Z,1012.37
2019-04-16T09:31:59.301Z,1012.34
2019-04-16T09:33:00.945Z,1012.38
2019-04-16T09:33:59.285Z,1012.38
2019-04-16T09:35:09.321Z,1012.40
2019-04-16T09:36:00.277Z,1012.36
2019-04-16T09:36:59.325Z,1012.34
2019-04-16T09:37:59.248Z,1012.33
2019-04-16T09:38:59.248Z,1012.41
2019-04-16T09:39:59.232Z,1012.36
2019-04-16T09:40:59.225Z,1012.36
2019-04-16T09:41:59.203Z,1012.27
2019-04-16T09:42:59.243Z,1012.37
2019-04-16T09:43:59.175Z,1012.34
2019-04-16T09:45:01.842Z,1012.33
2019-04-16T09:46:10.266Z,1012.26
2019-04-16T09:47:00.576Z,1012.26
2019-04-16T09:48:02.429Z,1012.26
2019-04-16T09:48:59.114Z,1012.28
2019-04-16T09:49:59.105Z,1012.36
2019-04-16T09:50:59.149Z,1012.28
2019-04-16T09:51:59.104Z,1012.30
2019-04-16T09:53:01.775Z,1012.21
2019-04-16T09:53:59.095Z,1012.25
2019-04-16T09:54:59.055Z,1012.24
2019-04-16T09:55:59.059Z,1012.21
2019-04-16T09:56:59.756Z,1012.20
2019-04-16T09:57:59.024Z,1012.16
2019-04-16T09:58:59.019Z,1012.22
2019-04-16T09:59:59.152Z,1012.20
2019-04-16T10:00:58.983Z,1012.21
2019-04-16T10:01:58.980Z,1012.24
2019-04-16T10:02:58.954Z,1012.16
2019-04-16T10:03:58.949Z,1012.15
2019-04-16T10:04:58.944Z,1012.13
2019-04-16T10:05:58.967Z,1012.10
2019-04-16T10:06:58.921Z,1012.16
2019-04-16T10:07:58.954Z,1012.16
2019-04-16T10:08:58.895Z,1012.19
2019-04-16T10:09:58.921Z,1012.13
2019-04-16T10:11:02.780Z,1012.17
2019-04-16T10:11:59.917Z,1012.08
2019-04-16T10:12:58.868Z,1012.16
2019-04-16T10:13:58.856Z,1012.09
2019-04-16T10:14:58.871Z,1012.10
2019-04-16T10:15:58.844Z,1012.09
2019-04-16T10:16:58.896Z,1012.05
2019-04-16T10:18:01.497Z,1012.09
2019-04-16T10:18:58.832Z,1012.02
2019-04-16T10:19:58.755Z,1012.06
2019-04-16T10:20:58.760Z,1012.11
2019-04-16T10:21:58.741Z,1012.14
2019-04-16T10:22:58.756Z,1012.07
2019-04-16T10:23:58.731Z,1012.11
2019-04-16T10:24:58.853Z,1011.99
2019-04-16T10:25:58.708Z,1012.12
2019-04-16T10:26:59.912Z,1012.10
2019-04-16T10:27:58.711Z,1012.18
2019-04-16T10:28:58.687Z,1012.12
2019-04-16T10:29:58.670Z,1012.12
2019-04-16T10:30:58.739Z,1012.02
2019-04-16T10:31:58.629Z,1012.14
2019-04-16T10:32:58.653Z,1012.09
2019-04-16T10:33:58.623Z,1012.04
2019-04-16T10:34:58.607Z,1011.99
2019-04-16T10:36:00.982Z,1011.98
2019-04-16T10:36:59.582Z,1012.01
2019-04-16T10:37:58.564Z,1012.02
2019-04-16T10:38:58.580Z,1011.96
2019-04-16T10:39:58.563Z,1011.97
2019-04-16T10:40:58.557Z,1011.98
2019-04-16T10:41:58.550Z,1011.95
2019-04-16T10:42:58.510Z,1011.96
2019-04-16T10:43:58.549Z,1011.95
2019-04-16T10:44:58.494Z,1011.90
2019-04-16T10:45:58.534Z,1011.95
2019-04-16T10:46:58.563Z,1011.85
2019-04-16T10:47:58.458Z,1011.86
2019-04-16T10:48:58.435Z,1011.82
2019-04-16T10:49:58.527Z,1011.81
2019-04-16T10:50:58.455Z,1011.84
2019-04-16T10:51:58.419Z,1011.71
2019-04-16T10:52:58.427Z,1011.82
2019-04-16T10:53:58.544Z,1011.79
2019-04-16T10:54:58.394Z,1011.83
2019-04-16T10:55:58.382Z,1011.82
2019-04-16T10:56:58.460Z,1011.81
2019-04-16T10:57:58.388Z,1011.80
2019-04-16T10:58:58.330Z,1011.80
2019-04-16T10:59:58.332Z,1011.81
2019-04-16T11:00:58.339Z,1011.75
2019-04-16T11:01:58.336Z,1011.77
2019-04-16T11:02:58.274Z,1011.79
2019-04-16T11:03:58.339Z,1011.76
2019-04-16T11:04:58.296Z,1011.75
2019-04-16T11:05:58.250Z,1011.75
2019-04-16T11:06:58.238Z,1011.81
2019-04-16T11:07:58.250Z,1011.81
2019-04-16T11:08:58.207Z,1011.72
2019-04-16T11:09:58.221Z,1011.69
2019-04-16T11:10:58.201Z,1011.64
2019-04-16T11:11:58.187Z,1011.58
2019-04-16T11:13:07.444Z,1011.68
2019-04-16T11:14:00.174Z,1011.62
2019-04-16T11:14:58.212Z,1011.66
2019-04-16T11:15:58.145Z,1011.60
2019-04-16T11:16:58.149Z,1011.60
2019-04-16T11:17:58.124Z,1011.67
2019-04-16T11:18:58.104Z,1011.61
2019-04-16T11:20:00.057Z,1011.59
2019-04-16T11:20:58.128Z,1011.61
2019-04-16T11:21:59.987Z,1011.60
2019-04-16T11:22:59.095Z,1011.56
2019-04-16T11:23:58.036Z,1011.52
2019-04-16T11:24:58.101Z,1011.54
2019-04-16T11:25:58.084Z,1011.57
2019-04-16T11:26:58.019Z,1011.50
2019-04-16T11:27:58.023Z,1011.51
2019-04-16T11:28:57.980Z,1011.57
2019-04-16T11:29:58.011Z,1011.46
2019-04-16T11:30:57.962Z,1011.51
2019-04-16T11:31:57.974Z,1011.56
2019-04-16T11:32:57.965Z,1011.55
2019-04-16T11:33:57.988Z,1011.43
2019-04-16T11:34:57.929Z,1011.47
2019-04-16T11:35:57.930Z,1011.52
2019-04-16T11:36:58.548Z,1011.41
2019-04-16T11:37:57.903Z,1011.53
2019-04-16T11:38:57.946Z,1011.55
2019-04-16T11:39:57.894Z,1011.60
2019-04-16T11:40:57.902Z,1011.48
2019-04-16T11:41:57.925Z,1011.47
2019-04-16T11:42:57.847Z,1011.48
2019-04-16T11:43:57.860Z,1011.50
2019-04-16T11:44:57.871Z,1011.58
2019-04-16T11:45:57.810Z,1011.45
2019-04-16T11:46:57.810Z,1011.47
2019-04-16T11:47:57.787Z,1011.51
2019-04-16T11:48:57.754Z,1011.45
2019-04-16T11:49:57.766Z,1011.42
2019-04-16T11:50:57.782Z,1011.45
2019-04-16T11:52:08.614Z,1011.47
2019-04-16T11:52:58.686Z,1011.49
2019-04-16T11:53:57.736Z,1011.50
2019-04-16T11:55:00.671Z,1011.47
2019-04-16T11:55:57.716Z,1011.47
2019-04-16T11:56:59.513Z,1011.48
2019-04-16T11:57:57.748Z,1011.48
2019-04-16T11:58:57.890Z,1011.49
2019-04-16T12:00:06.744Z,1011.47
2019-04-16T12:00:58.620Z,1011.45
2019-04-16T12:01:57.714Z,1011.44
2019-04-16T12:02:57.609Z,1011.41
2019-04-16T12:03:57.600Z,1011.45
2019-04-16T12:04:59.407Z,1011.47